EmailTwitter


Observations de surface / Québec / LFRT

Régions: Québec | Canada | États-Unis | Europe | France | UK | Ailleurs
Station
Affichage
Infos & localisation pour LFRT | Aide pour décoder les METARs

Observations prises le 2017-09-21 à 10H30 UTC à SAINT-BRIEUC ARM, FR (LFRT)

Etat du ciel: couvert.

Température: 16.0 Celsius

Point de rosée: 14.0 Celsius

Humidité relative: 88%

Vents: Sud-ouest à 13 km/h ou 7 noeuds.

Pression au niveau moyen de la mer: 101.60 kilopascals.

Visibilité horizontale: 6.21 milles terrestres ou 9.94 kilomètres.

Hauteur du plafond: 366 mètres ( 1200 pieds ).

Observation METAR:

LFRT 211030Z AUTO 24007KT 160V280 9999 BKN012 OVC017 16/14 Q1016=